Portada
METAR-TAF:

METAR-TAF

Aeroports :

Ottawa, Ontàrio, Canadà

latitud: 45-19N, longitud: 075-40W, altitud: 116 m

Observació

L'informe es va fer fa 1 hora i 9 minuts, a les 21:00 UTC
Vent 5 kt del Sud-Oest
Temperatura 3°C
Humitat 81%
Pressió 1013 hPa
Visibilitat: 24.1 km
Núvols disperses a una alçada de 6000 ft
Cel ennuvolat a una alçada de 15000 ft

METAR: CYOW 282100Z 23005KT 15SM SCT060 BKN150 03/00 A2992 RMK SC4AC3 SLP136

Hora: 17:09 (22:09 UTC)

Pronòstic

L'informe es va fer fa 1 hora i 30 minuts, a les 20:39 UTC
Pronòstic vàlid del 28 a les 21 UTC al 29 a les 18 UTC
Vent 8 kt del Sud-Oest
Visibilitat: 10 km
Escasses núvols a una alçada de 2000 ft
Cel ennuvolat a una alçada de 5000 ft
A partir de les 29 a les 1500 UTC
Vent 8 kt del Sud-Oest
Visibilitat: 10 km
Núvols disperses a una alçada de 3000 ft

TAF: CYOW 282039Z 2821/2918 23008KT P6SM FEW020 BKN050 FM291500 22008KT P6SM SCT030 RMK NXT FCST BY 290000Z

Observacions i pronòstics meteorològics de més de 4000 aeroports (METAR i TAF).

Les estacions disponibles són els punts grocs i vermells al mapa.

Posi el ratolí al punt desitjat per veure el nom de l'estació.

Feu clic per veure les observacions i els pronòstics meteorològics.

Per canviar el mapa: feu clic els botons verds amb una creu de color negre per apropar; al botó verd amb un guió per allunyar la imatge; o en les fletxes verdes per a mapes adjacents.


METAR-TAF: